Time;durP1;ratioP1;P1;durP2;ratioP2;P2;SDS_P1;SDS_P2;PMS_P1;PMS_P2;Temp;Humidity;BMP_temperature;BMP_pressure;BME280_temperature;BME280_humidity;BME280_pressure;Samples;Min_cycle;Max_cycle;Signal;HPM_P1;HPM_P2
2023/01/29 00:02:04;;;;;;;29.33;14.97;;;3.90;99.90;;;;;;4983858;28;20587;-71
2023/01/29 00:04:31;;;;;;;28.80;15.73;;;3.90;99.90;;;;;;4987465;28;20319;-71
2023/01/29 00:06:58;;;;;;;32.13;17.03;;;3.90;99.90;;;;;;4967685;28;20211;-71
2023/01/29 00:09:25;;;;;;;24.80;15.50;;;3.90;99.90;;;;;;4984103;28;20211;-71
2023/01/29 00:11:52;;;;;;;29.83;16.40;;;3.90;99.90;;;;;;4983615;28;20200;-69
2023/01/29 00:14:19;;;;;;;32.70;17.67;;;3.90;99.90;;;;;;4984918;28;20764;-70
2023/01/29 00:16:46;;;;;;;30.07;16.80;;;3.90;99.90;;;;;;4981898;28;20721;-70
2023/01/29 00:19:12;;;;;;;31.67;17.30;;;3.90;99.90;;;;;;4986312;28;20203;-69
2023/01/29 00:21:39;;;;;;;32.60;18.57;;;3.90;99.90;;;;;;4967140;28;20203;-70
2023/01/29 00:24:06;;;;;;;30.60;17.37;;;3.90;99.90;;;;;;4987759;28;20217;-69
2023/01/29 00:26:33;;;;;;;31.33;17.63;;;3.90;99.90;;;;;;4982276;28;20206;-72
2023/01/29 00:29:00;;;;;;;30.50;16.90;;;3.90;99.90;;;;;;4986275;28;20727;-70
2023/01/29 00:31:27;;;;;;;32.27;16.77;;;3.90;99.90;;;;;;4986220;28;20213;-70
2023/01/29 00:33:54;;;;;;;35.33;17.93;;;3.90;99.90;;;;;;4986590;28;20215;-69
2023/01/29 00:36:21;;;;;;;33.87;17.60;;;3.90;99.90;;;;;;4982744;28;20235;-69
2023/01/29 00:38:57;;;;;;;34.70;17.83;;;3.90;99.90;;;;;;4987548;28;20200;-70
2023/01/29 00:47:01;;;;;;;34.20;17.97;;;3.80;99.90;;;;;;4994042;28;20219;-70
2023/01/29 00:49:29;;;;;;;31.13;17.80;;;3.90;99.90;;;;;;4986353;28;20199;-70
2023/01/29 00:55:03;;;;;;;33.97;18.00;;;3.90;99.90;;;;;;4949855;28;20694;-70
2023/01/29 00:57:33;;;;;;;32.70;16.93;;;3.90;99.90;;;;;;4946253;28;20432;-70
2023/01/29 01:00:02;;;;;;;33.40;17.00;;;3.90;99.90;;;;;;4968781;28;20199;-71
2023/01/29 01:05:19;;;;;;;32.43;17.87;;;3.90;99.90;;;;;;4988061;28;20217;-68
2023/01/29 01:07:48;;;;;;;34.20;18.50;;;3.90;99.90;;;;;;4990069;28;20298;-71
2023/01/29 01:10:28;;;;;;;36.03;18.77;;;3.90;99.90;;;;;;4985221;28;20199;-71
2023/01/29 01:12:58;;;;;;;30.67;17.77;;;3.90;99.90;;;;;;4987926;28;20195;-70
2023/01/29 01:15:32;;;;;;;33.63;17.13;;;3.90;99.90;;;;;;4985406;28;20299;-71
2023/01/29 01:18:00;;;;;;;32.57;18.40;;;3.90;99.90;;;;;;4989310;28;20592;-71
2023/01/29 01:20:29;;;;;;;30.47;17.23;;;3.80;99.90;;;;;;4985268;28;20293;-71
2023/01/29 01:22:55;;;;;;;37.23;18.30;;;3.80;99.90;;;;;;4988851;28;20234;-70
2023/01/29 01:25:24;;;;;;;31.73;17.80;;;3.80;99.90;;;;;;4988347;28;20296;-71
2023/01/29 01:27:53;;;;;;;31.43;17.00;;;3.80;99.90;;;;;;4987100;28;20210;-71
2023/01/29 01:30:19;;;;;;;31.07;17.03;;;3.90;99.90;;;;;;4987129;28;20210;-68
2023/01/29 01:32:46;;;;;;;31.03;17.80;;;3.90;99.90;;;;;;4988372;28;20231;-69
2023/01/29 01:35:13;;;;;;;33.63;16.87;;;3.90;99.90;;;;;;4986063;28;20213;-70
2023/01/29 01:37:40;;;;;;;31.03;17.23;;;3.90;99.90;;;;;;4990098;28;20278;-68
2023/01/29 01:40:16;;;;;;;33.03;18.83;;;3.90;99.90;;;;;;4988191;28;20207;-70
2023/01/29 01:42:48;;;;;;;32.80;18.67;;;4.00;99.90;;;;;;4987339;28;20195;-70
2023/01/29 01:45:27;;;;;;;32.40;18.30;;;4.00;99.90;;;;;;4991782;28;20562;-70
2023/01/29 01:48:00;;;;;;;31.73;17.87;;;4.00;99.90;;;;;;4988982;28;20301;-70
2023/01/29 01:50:48;;;;;;;30.93;18.77;;;4.00;99.90;;;;;;4990063;28;20625;-70
2023/01/29 01:53:39;;;;;;;33.77;18.20;;;4.00;99.90;;;;;;4989791;28;20199;-70
2023/01/29 01:56:09;;;;;;;34.27;18.40;;;4.00;99.90;;;;;;4968677;28;20315;-70
2023/01/29 01:59:10;;;;;;;33.70;19.13;;;3.90;99.90;;;;;;4989088;28;20435;-70
2023/01/29 02:01:41;;;;;;;33.70;18.20;;;4.00;99.90;;;;;;4942415;28;20237;-70
2023/01/29 02:09:51;;;;;;;30.30;17.40;;;3.90;99.90;;;;;;4987509;28;20204;-70
2023/01/29 02:12:19;;;;;;;33.37;19.10;;;3.90;99.90;;;;;;4984223;28;20558;-70
2023/01/29 02:14:46;;;;;;;33.57;18.50;;;3.90;99.90;;;;;;4986765;28;20294;-70
2023/01/29 02:17:16;;;;;;;33.93;18.63;;;3.90;99.90;;;;;;4982555;28;20228;-70
2023/01/29 02:19:45;;;;;;;35.40;19.70;;;3.90;99.90;;;;;;4989830;28;20597;-70
2023/01/29 02:22:46;;;;;;;33.97;20.00;;;3.90;99.90;;;;;;4986499;28;20211;-70
2023/01/29 02:25:46;;;;;;;30.93;18.93;;;3.90;99.90;;;;;;4986068;28;20666;-70
2023/01/29 02:28:43;;;;;;;33.83;19.97;;;3.90;99.90;;;;;;4984807;28;20220;-69
2023/01/29 02:31:37;;;;;;;34.07;19.07;;;3.90;99.90;;;;;;4983946;28;20210;-69
2023/01/29 02:34:30;;;;;;;32.73;19.00;;;4.00;99.90;;;;;;4985536;28;20244;-68
2023/01/29 02:37:08;;;;;;;35.40;19.30;;;3.90;99.90;;;;;;4985662;28;20230;-70
2023/01/29 02:39:39;;;;;;;32.93;19.43;;;3.90;99.90;;;;;;4985778;28;20215;-70
2023/01/29 02:42:27;;;;;;;33.17;18.10;;;3.90;99.90;;;;;;4989580;28;20511;-70
2023/01/29 02:45:20;;;;;;;33.00;18.60;;;3.90;99.90;;;;;;4986242;28;20317;-69
2023/01/29 02:47:49;;;;;;;33.57;18.60;;;3.90;99.90;;;;;;4987959;28;20262;-70
2023/01/29 02:50:41;;;;;;;34.77;19.43;;;3.90;99.90;;;;;;4992989;28;20203;-69
2023/01/29 02:53:32;;;;;;;30.07;17.83;;;3.90;99.90;;;;;;4988920;28;20222;-70
2023/01/29 02:56:16;;;;;;;39.20;20.17;;;3.90;99.90;;;;;;4986709;28;20215;-71
2023/01/29 02:58:57;;;;;;;35.00;19.20;;;3.90;99.90;;;;;;4983086;28;20593;-70
2023/01/29 03:01:47;;;;;;;33.57;18.53;;;3.90;99.90;;;;;;4986466;28;20234;-71
2023/01/29 03:04:21;;;;;;;34.53;18.83;;;3.90;99.90;;;;;;4988216;28;20667;-70
2023/01/29 03:06:53;;;;;;;33.60;19.00;;;3.90;99.90;;;;;;4969592;28;20663;-70
2023/01/29 03:09:35;;;;;;;33.10;19.13;;;3.90;99.90;;;;;;4984496;28;20212;-71
2023/01/29 03:12:17;;;;;;;30.53;18.20;;;3.90;99.90;;;;;;4983768;28;20294;-71
2023/01/29 03:18:09;;;;;;;31.90;18.73;;;3.90;99.90;;;;;;4987423;28;20251;-69
2023/01/29 03:20:49;;;;;;;33.23;19.83;;;3.90;99.90;;;;;;4953954;28;20246;-71
2023/01/29 03:23:26;;;;;;;29.23;17.07;;;3.80;99.90;;;;;;4988016;28;20211;-69
2023/01/29 03:34:33;;;;;;;31.17;18.60;;;3.80;99.90;;;;;;4988168;28;20195;-71
2023/01/29 03:37:09;;;;;;;32.77;18.80;;;3.80;99.90;;;;;;4985365;28;20206;-71
2023/01/29 03:39:36;;;;;;;32.60;18.87;;;3.80;99.90;;;;;;4986796;28;20668;-70
2023/01/29 03:42:09;;;;;;;34.63;18.67;;;3.80;99.90;;;;;;4987911;28;20210;-70
2023/01/29 03:45:07;;;;;;;29.63;17.03;;;3.80;99.90;;;;;;4982453;28;20223;-71
2023/01/29 03:48:02;;;;;;;31.97;18.77;;;3.90;99.90;;;;;;4988813;28;20254;-70
2023/01/29 03:50:52;;;;;;;31.27;17.77;;;3.90;99.90;;;;;;4952641;28;20317;-70
2023/01/29 03:53:25;;;;;;;34.03;19.87;;;3.90;99.90;;;;;;4988782;28;20635;-70
2023/01/29 03:56:00;;;;;;;35.93;20.20;;;3.80;99.90;;;;;;4986182;28;20207;-70
2023/01/29 03:58:41;;;;;;;33.23;18.47;;;3.80;99.90;;;;;;4986092;28;20289;-70
2023/01/29 04:01:28;;;;;;;33.47;18.30;;;3.80;99.90;;;;;;4984908;28;20261;-70
2023/01/29 04:03:57;;;;;;;29.50;17.67;;;3.80;99.90;;;;;;4987499;28;20250;-70
2023/01/29 04:06:28;;;;;;;30.70;18.33;;;3.80;99.90;;;;;;4987333;28;20211;-70
2023/01/29 04:09:03;;;;;;;35.37;18.67;;;3.80;99.90;;;;;;4982141;28;20295;-70
2023/01/29 04:11:33;;;;;;;32.03;19.00;;;3.80;99.90;;;;;;4986439;28;20535;-70
2023/01/29 04:14:00;;;;;;;32.37;19.43;;;3.80;99.90;;;;;;4979376;28;20224;-70
2023/01/29 04:16:32;;;;;;;33.60;19.20;;;3.70;99.90;;;;;;4984306;28;20219;-70
2023/01/29 04:18:59;;;;;;;35.83;19.93;;;3.70;99.90;;;;;;4986113;28;20206;-70
2023/01/29 04:21:26;;;;;;;32.23;19.57;;;3.60;99.90;;;;;;4988234;28;20249;-70
2023/01/29 04:23:53;;;;;;;31.40;18.00;;;3.60;99.90;;;;;;4976466;28;20238;-70
2023/01/29 04:26:26;;;;;;;32.70;18.37;;;3.60;99.90;;;;;;4988471;28;20652;-71
2023/01/29 04:29:06;;;;;;;35.43;19.33;;;3.60;99.90;;;;;;4988281;28;20286;-70
2023/01/29 04:32:12;;;;;;;32.57;19.47;;;3.70;99.90;;;;;;4986161;28;20297;-70
2023/01/29 04:34:53;;;;;;;35.27;19.00;;;3.70;99.90;;;;;;4983115;28;20205;-70
2023/01/29 04:37:34;;;;;;;32.87;18.70;;;3.70;99.90;;;;;;4989334;28;20623;-70
2023/01/29 04:40:16;;;;;;;32.93;18.53;;;3.70;99.90;;;;;;4984636;28;20199;-70
2023/01/29 04:42:55;;;;;;;37.27;20.97;;;3.60;99.90;;;;;;4989124;28;20702;-70
2023/01/29 04:45:40;;;;;;;35.17;19.93;;;3.70;99.90;;;;;;4991873;28;20223;-70
2023/01/29 04:48:10;;;;;;;32.43;18.50;;;3.60;99.90;;;;;;4988338;28;20714;-70
2023/01/29 04:50:43;;;;;;;34.50;19.43;;;3.60;99.90;;;;;;4987460;28;20207;-70
2023/01/29 04:53:27;;;;;;;36.60;20.13;;;3.70;99.90;;;;;;4987619;28;20355;-70
2023/01/29 04:56:00;;;;;;;34.17;19.07;;;3.70;99.90;;;;;;4987112;28;20208;-70
2023/01/29 04:58:33;;;;;;;34.27;18.33;;;3.70;99.90;;;;;;4990014;28;20298;-70
2023/01/29 05:01:03;;;;;;;34.10;19.07;;;3.60;99.90;;;;;;4968430;28;20243;-70
2023/01/29 05:03:32;;;;;;;32.60;19.43;;;3.60;99.90;;;;;;4988977;28;20772;-70
2023/01/29 05:06:00;;;;;;;37.97;20.10;;;3.60;99.90;;;;;;4989203;28;20235;-70
2023/01/29 05:08:29;;;;;;;34.67;20.37;;;3.60;99.90;;;;;;4969308;28;20282;-70
2023/01/29 05:10:57;;;;;;;35.80;20.17;;;3.60;99.90;;;;;;4989721;28;20203;-71
2023/01/29 05:13:25;;;;;;;33.43;19.60;;;3.60;99.90;;;;;;4989313;28;20197;-70
2023/01/29 05:16:11;;;;;;;34.53;20.23;;;3.60;99.90;;;;;;4988583;28;20222;-70
2023/01/29 05:18:39;;;;;;;33.70;20.43;;;3.60;99.90;;;;;;4982507;28;20717;-70
2023/01/29 05:21:08;;;;;;;35.57;19.53;;;3.60;99.90;;;;;;4988197;28;20715;-70
2023/01/29 05:23:35;;;;;;;35.10;20.33;;;3.50;99.90;;;;;;4988536;28;20243;-70
2023/01/29 05:26:02;;;;;;;36.80;20.53;;;3.60;99.90;;;;;;4990834;28;20254;-70
2023/01/29 05:28:28;;;;;;;34.90;20.03;;;3.50;99.90;;;;;;4984701;28;20649;-70
2023/01/29 05:30:56;;;;;;;33.53;18.63;;;3.50;99.90;;;;;;4988769;28;20213;-70
2023/01/29 05:33:27;;;;;;;34.87;19.40;;;3.60;99.90;;;;;;4987486;28;20648;-71
2023/01/29 05:35:55;;;;;;;36.97;20.23;;;3.60;99.90;;;;;;4988649;28;20294;-70
2023/01/29 05:38:22;;;;;;;36.80;20.33;;;3.60;99.90;;;;;;4989572;28;20673;-70
2023/01/29 05:40:49;;;;;;;35.87;21.37;;;3.60;99.90;;;;;;4988690;28;20199;-70
2023/01/29 05:43:23;;;;;;;33.37;20.60;;;3.50;99.90;;;;;;4986662;28;20283;-70
2023/01/29 05:45:52;;;;;;;36.97;21.20;;;3.50;99.90;;;;;;4991997;28;20625;-70
2023/01/29 05:48:19;;;;;;;35.50;21.40;;;3.60;99.90;;;;;;4989925;28;20240;-70
2023/01/29 05:50:46;;;;;;;40.13;22.47;;;3.50;99.90;;;;;;4984896;28;20200;-70
2023/01/29 05:53:12;;;;;;;38.30;22.17;;;3.50;99.90;;;;;;4974892;28;20307;-70
2023/01/29 05:55:42;;;;;;;34.50;21.33;;;3.40;99.90;;;;;;4986129;28;20207;-70
2023/01/29 05:58:09;;;;;;;36.83;21.07;;;3.30;99.90;;;;;;4988484;28;20290;-70
2023/01/29 06:00:36;;;;;;;39.77;21.47;;;3.30;99.90;;;;;;4970850;28;20707;-70
2023/01/29 06:03:02;;;;;;;41.77;22.57;;;3.30;99.90;;;;;;4988991;28;20233;-70
2023/01/29 06:05:29;;;;;;;40.63;22.67;;;3.40;99.90;;;;;;4987951;28;20232;-70
2023/01/29 06:07:56;;;;;;;43.07;22.07;;;3.40;99.90;;;;;;4988541;28;20211;-70
2023/01/29 06:10:23;;;;;;;40.10;21.50;;;3.40;99.90;;;;;;4985176;28;20212;-68
2023/01/29 06:12:49;;;;;;;40.13;22.23;;;3.40;99.90;;;;;;4983873;28;20298;-70
2023/01/29 06:15:18;;;;;;;37.03;22.07;;;3.40;99.90;;;;;;4986646;28;20243;-70
2023/01/29 06:17:45;;;;;;;42.00;22.60;;;3.40;99.90;;;;;;4988643;28;20239;-70
2023/01/29 06:20:12;;;;;;;38.33;22.07;;;3.40;99.90;;;;;;4985565;28;20216;-70
2023/01/29 06:22:38;;;;;;;39.57;24.50;;;3.40;99.90;;;;;;4988037;28;20218;-70
2023/01/29 06:25:06;;;;;;;41.30;24.47;;;3.30;99.90;;;;;;4986160;28;20234;-72
2023/01/29 06:27:32;;;;;;;39.60;22.27;;;3.30;99.90;;;;;;4989789;28;20664;-70
2023/01/29 06:29:59;;;;;;;42.40;22.70;;;3.30;99.90;;;;;;4988311;28;20199;-70
2023/01/29 06:32:26;;;;;;;39.50;22.43;;;3.30;99.90;;;;;;4990086;28;20219;-70
2023/01/29 06:34:53;;;;;;;37.53;22.67;;;3.20;99.90;;;;;;4967929;28;20207;-70
2023/01/29 06:37:20;;;;;;;44.53;23.67;;;3.30;99.90;;;;;;4986802;28;20213;-70
2023/01/29 06:39:46;;;;;;;39.97;22.00;;;3.20;99.90;;;;;;4972471;28;20214;-70
2023/01/29 06:42:13;;;;;;;42.17;21.60;;;3.20;99.90;;;;;;4973223;28;20208;-71
2023/01/29 06:44:40;;;;;;;43.17;23.03;;;3.30;99.90;;;;;;4989499;28;20240;-71
2023/01/29 06:47:06;;;;;;;43.13;24.20;;;3.30;99.90;;;;;;4990404;28;20721;-71
2023/01/29 06:49:33;;;;;;;38.07;22.40;;;3.30;99.90;;;;;;4970495;28;20563;-71
2023/01/29 06:52:00;;;;;;;39.57;22.13;;;3.20;99.90;;;;;;4989749;28;20680;-70
2023/01/29 06:54:26;;;;;;;40.53;23.17;;;3.20;99.90;;;;;;4988150;28;20825;-69
2023/01/29 06:56:53;;;;;;;41.30;23.57;;;3.20;99.90;;;;;;4988343;28;20637;-70
2023/01/29 06:59:20;;;;;;;39.03;22.17;;;3.20;99.90;;;;;;4984794;28;20265;-70
2023/01/29 07:01:46;;;;;;;41.17;22.40;;;3.20;99.90;;;;;;4968597;28;20249;-71
2023/01/29 07:04:13;;;;;;;38.33;22.57;;;3.20;99.90;;;;;;4988692;28;20293;-70
2023/01/29 07:06:40;;;;;;;35.60;21.50;;;3.20;99.90;;;;;;4986840;28;20695;-70
2023/01/29 07:09:10;;;;;;;38.63;22.57;;;3.20;99.90;;;;;;4986011;28;20668;-70
2023/01/29 07:11:37;;;;;;;42.87;23.00;;;3.20;99.90;;;;;;4985906;28;20570;-70
2023/01/29 07:14:03;;;;;;;37.23;22.43;;;3.20;99.90;;;;;;4988505;28;20199;-70
2023/01/29 07:16:30;;;;;;;38.20;23.07;;;3.20;99.90;;;;;;4983007;28;20302;-71
2023/01/29 07:18:57;;;;;;;38.93;23.40;;;3.20;99.90;;;;;;4986355;28;21084;-70
2023/01/29 07:21:24;;;;;;;41.10;23.13;;;3.20;99.90;;;;;;4988563;28;20203;-71
2023/01/29 07:23:51;;;;;;;38.17;22.57;;;3.30;99.90;;;;;;4969263;28;20295;-69
2023/01/29 07:26:18;;;;;;;40.17;22.60;;;3.30;99.90;;;;;;4987672;28;20277;-70
2023/01/29 07:28:44;;;;;;;42.03;22.77;;;3.30;99.90;;;;;;4970537;28;20291;-70
2023/01/29 07:31:13;;;;;;;41.80;24.27;;;3.40;99.90;;;;;;4980829;28;20214;-70
2023/01/29 07:33:42;;;;;;;43.07;23.50;;;3.40;99.90;;;;;;4987462;28;20762;-71
2023/01/29 07:36:11;;;;;;;40.13;23.40;;;3.40;99.90;;;;;;4988516;28;20207;-70
2023/01/29 07:38:38;;;;;;;40.93;23.43;;;3.50;99.90;;;;;;4987564;28;20706;-70
2023/01/29 07:41:05;;;;;;;40.53;24.00;;;3.50;99.90;;;;;;4988720;28;20215;-70
2023/01/29 07:43:32;;;;;;;39.13;23.27;;;3.50;99.90;;;;;;4980956;28;20756;-70
2023/01/29 07:46:03;;;;;;;39.50;21.97;;;3.50;99.90;;;;;;4988100;28;20223;-70
2023/01/29 07:48:30;;;;;;;43.37;23.57;;;3.50;99.90;;;;;;4989892;28;20586;-70
2023/01/29 07:50:57;;;;;;;41.77;24.60;;;3.50;99.90;;;;;;4985442;28;20287;-71
2023/01/29 07:53:24;;;;;;;42.73;23.93;;;3.50;99.90;;;;;;4971726;28;20226;-70
2023/01/29 07:55:51;;;;;;;40.17;24.03;;;3.50;99.90;;;;;;4991329;28;20235;-70
2023/01/29 07:58:18;;;;;;;41.87;24.13;;;3.50;99.90;;;;;;4994045;28;20203;-69
2023/01/29 08:00:45;;;;;;;40.77;24.40;;;3.60;99.90;;;;;;4983417;28;20231;-70
2023/01/29 08:03:15;;;;;;;43.23;25.10;;;3.60;99.90;;;;;;4992516;28;20230;-69
2023/01/29 08:05:43;;;;;;;41.97;25.57;;;3.60;99.90;;;;;;4993589;28;20219;-70
2023/01/29 08:08:10;;;;;;;44.00;24.87;;;3.60;99.90;;;;;;4994871;28;20306;-69
2023/01/29 08:10:38;;;;;;;40.10;24.53;;;3.60;99.90;;;;;;4990296;28;20212;-69
2023/01/29 08:13:06;;;;;;;44.00;25.63;;;3.60;99.90;;;;;;4993742;28;20250;-70
2023/01/29 08:15:33;;;;;;;45.70;25.13;;;3.60;99.90;;;;;;4989396;28;20207;-71
2023/01/29 08:18:03;;;;;;;43.53;25.67;;;3.60;99.90;;;;;;4989740;28;20726;-71
2023/01/29 08:20:30;;;;;;;39.80;23.77;;;3.60;99.90;;;;;;4992503;28;20290;-71
2023/01/29 08:22:59;;;;;;;37.43;23.60;;;3.60;99.90;;;;;;4993506;28;20640;-70
2023/01/29 08:25:26;;;;;;;42.13;24.43;;;3.60;99.90;;;;;;4984592;28;20223;-69
2023/01/29 08:27:54;;;;;;;39.50;24.33;;;3.60;99.90;;;;;;4992906;28;20203;-70
2023/01/29 08:30:24;;;;;;;42.77;23.90;;;3.60;99.90;;;;;;4989282;28;20783;-71
2023/01/29 08:32:50;;;;;;;43.50;24.43;;;3.60;99.90;;;;;;4992217;28;20318;-70
2023/01/29 08:35:17;;;;;;;41.37;24.13;;;3.70;99.90;;;;;;4977247;28;20700;-69
2023/01/29 08:37:58;;;;;;;39.20;21.83;;;3.70;99.90;;;;;;4988953;28;20200;-70
2023/01/29 08:40:27;;;;;;;39.17;22.73;;;3.70;99.90;;;;;;4972309;28;20285;-70
2023/01/29 08:43:13;;;;;;;37.83;21.97;;;3.80;99.90;;;;;;4988626;28;20199;-71
2023/01/29 08:45:42;;;;;;;37.23;21.27;;;3.80;99.90;;;;;;4991027;28;20258;-70
2023/01/29 08:48:09;;;;;;;36.70;22.27;;;3.80;99.90;;;;;;4992382;28;20220;-69
2023/01/29 08:50:36;;;;;;;39.00;21.80;;;3.80;99.90;;;;;;4989829;28;20227;-70
2023/01/29 08:53:08;;;;;;;36.30;21.47;;;3.90;99.90;;;;;;4990754;28;20203;-69
2023/01/29 08:55:39;;;;;;;35.93;21.40;;;3.90;99.90;;;;;;4985704;28;20208;-69
2023/01/29 08:58:07;;;;;;;35.10;20.60;;;3.90;99.90;;;;;;4990446;28;20278;-70
2023/01/29 09:00:34;;;;;;;40.57;22.43;;;4.00;99.90;;;;;;4985799;28;20240;-71
2023/01/29 09:03:02;;;;;;;35.80;20.87;;;4.10;99.90;;;;;;4987973;28;20223;-71
2023/01/29 09:05:28;;;;;;;34.93;21.60;;;4.10;99.90;;;;;;4987398;28;20611;-72
2023/01/29 09:07:58;;;;;;;32.60;19.27;;;4.10;99.90;;;;;;4987192;28;20290;-71
2023/01/29 09:10:25;;;;;;;36.83;20.93;;;4.10;99.90;;;;;;4986511;28;20208;-71
2023/01/29 09:12:51;;;;;;;38.40;20.47;;;4.20;99.90;;;;;;4987506;28;20306;-70
2023/01/29 09:15:18;;;;;;;34.17;20.10;;;4.20;99.90;;;;;;4986881;28;20203;-71
2023/01/29 09:17:45;;;;;;;35.13;20.20;;;4.20;99.90;;;;;;4988810;28;20774;-71
2023/01/29 09:20:12;;;;;;;35.97;20.27;;;4.20;99.90;;;;;;4987334;28;20303;-68
2023/01/29 09:22:39;;;;;;;32.93;20.67;;;4.20;99.90;;;;;;4988013;28;20639;-69
2023/01/29 09:25:06;;;;;;;36.20;20.93;;;4.20;99.90;;;;;;4971272;28;20227;-69
2023/01/29 09:27:33;;;;;;;34.67;20.30;;;4.30;99.90;;;;;;4988971;28;20217;-71
2023/01/29 09:30:00;;;;;;;33.93;19.73;;;4.40;99.90;;;;;;4975560;28;20214;-70
2023/01/29 09:32:29;;;;;;;33.17;19.33;;;4.40;99.90;;;;;;4986750;28;20223;-71
2023/01/29 09:35:15;;;;;;;36.33;20.93;;;4.40;99.90;;;;;;4987780;28;20207;-69
2023/01/29 09:37:46;;;;;;;31.50;19.73;;;4.40;99.90;;;;;;4989150;28;20228;-71
2023/01/29 09:40:32;;;;;;;33.37;20.93;;;4.50;99.90;;;;;;4988269;28;20211;-70
2023/01/29 09:43:12;;;;;;;28.77;19.53;;;4.50;99.90;;;;;;4986005;28;20195;-71
2023/01/29 09:46:02;;;;;;;31.07;18.57;;;4.50;99.90;;;;;;4978026;28;20786;-71
2023/01/29 09:48:33;;;;;;;33.87;21.07;;;4.50;99.90;;;;;;4986943;28;20224;-71
2023/01/29 09:51:05;;;;;;;35.30;21.10;;;4.50;99.90;;;;;;4984881;28;20211;-71
2023/01/29 09:53:42;;;;;;;37.13;20.77;;;4.60;99.90;;;;;;4987541;28;20247;-71
2023/01/29 09:56:17;;;;;;;32.87;19.73;;;4.50;99.90;;;;;;4986630;28;20660;-69
2023/01/29 09:58:44;;;;;;;34.63;21.77;;;4.50;99.90;;;;;;4983252;28;20289;-71
2023/01/29 10:01:20;;;;;;;31.47;20.40;;;4.60;99.90;;;;;;4988195;28;20219;-71
2023/01/29 10:04:12;;;;;;;32.47;18.63;;;4.60;99.90;;;;;;4984961;28;20203;-69
2023/01/29 10:07:21;;;;;;;32.30;19.80;;;4.70;99.90;;;;;;4986573;28;20703;-70
2023/01/29 10:09:56;;;;;;;31.07;18.40;;;4.70;99.90;;;;;;4961307;28;20199;-70
2023/01/29 10:12:51;;;;;;;26.80;18.27;;;4.80;99.90;;;;;;4990043;28;20326;-69
2023/01/29 10:15:35;;;;;;;33.13;19.37;;;4.80;99.90;;;;;;4984894;28;20235;-68
2023/01/29 10:18:08;;;;;;;34.37;19.73;;;4.80;99.90;;;;;;4986631;28;20680;-70
2023/01/29 10:21:08;;;;;;;29.27;18.70;;;4.80;99.90;;;;;;4986693;28;20686;-70
2023/01/29 10:23:42;;;;;;;31.77;18.27;;;4.80;99.90;;;;;;4987360;28;20203;-70
2023/01/29 10:26:11;;;;;;;29.77;18.03;;;4.80;99.90;;;;;;4985350;28;20245;-70
2023/01/29 10:28:51;;;;;;;31.77;18.23;;;4.80;99.90;;;;;;4981908;28;20203;-69
2023/01/29 10:31:26;;;;;;;32.23;19.50;;;4.80;99.90;;;;;;4971407;28;20215;-69
2023/01/29 10:33:59;;;;;;;36.87;21.10;;;4.80;99.90;;;;;;4985030;28;20593;-69
2023/01/29 10:36:43;;;;;;;39.20;19.33;;;4.90;99.90;;;;;;4986603;28;20230;-70
2023/01/29 10:39:21;;;;;;;30.67;18.33;;;4.90;99.90;;;;;;4988941;28;20205;-70
2023/01/29 10:42:43;;;;;;;30.30;18.80;;;4.90;99.90;;;;;;4989324;28;20318;-70
2023/01/29 10:45:32;;;;;;;31.33;19.33;;;4.90;99.90;;;;;;4914224;29;20780;-70
2023/01/29 10:48:34;;;;;;;28.70;17.90;;;4.90;99.90;;;;;;4983550;28;20312;-70
2023/01/29 10:51:13;;;;;;;29.63;18.27;;;4.90;99.90;;;;;;4986212;28;20282;-70
2023/01/29 10:53:56;;;;;;;33.07;19.83;;;5.00;99.90;;;;;;4989269;28;20206;-71
2023/01/29 10:56:36;;;;;;;33.97;18.73;;;4.90;99.90;;;;;;4994125;28;20225;-70
2023/01/29 10:59:28;;;;;;;33.40;20.33;;;4.90;99.90;;;;;;4983652;28;20258;-70
2023/01/29 11:01:59;;;;;;;29.80;18.60;;;4.90;99.90;;;;;;4987609;28;20320;-69
2023/01/29 11:04:28;;;;;;;34.57;20.27;;;4.90;99.90;;;;;;4986957;28;20226;-68
2023/01/29 11:06:55;;;;;;;29.47;18.73;;;4.90;99.90;;;;;;4985199;28;20610;-69
2023/01/29 11:09:34;;;;;;;30.47;18.77;;;4.80;99.90;;;;;;4986887;28;20689;-69
2023/01/29 11:12:19;;;;;;;32.07;19.67;;;4.90;99.90;;;;;;4983608;28;20220;-70
2023/01/29 11:14:54;;;;;;;30.47;19.93;;;4.90;99.90;;;;;;4982358;28;20212;-69
2023/01/29 11:17:23;;;;;;;35.50;22.20;;;4.90;99.90;;;;;;4983696;28;20215;-71
2023/01/29 11:19:52;;;;;;;34.00;21.40;;;4.90;99.90;;;;;;4983465;28;20216;-70
2023/01/29 11:22:22;;;;;;;31.47;20.17;;;4.90;99.90;;;;;;4992029;28;20238;-70
2023/01/29 11:25:14;;;;;;;36.00;19.30;;;4.90;99.90;;;;;;4989328;28;20297;-71
2023/01/29 11:28:01;;;;;;;32.80;19.77;;;4.80;99.90;;;;;;4981461;28;20285;-71
2023/01/29 11:30:36;;;;;;;30.80;19.00;;;4.80;99.90;;;;;;4967451;28;20672;-68
2023/01/29 11:33:19;;;;;;;30.17;19.10;;;4.90;99.90;;;;;;4982479;28;20277;-69
2023/01/29 11:35:45;;;;;;;32.37;19.23;;;4.90;99.90;;;;;;4978808;28;20248;-69
2023/01/29 11:38:15;;;;;;;35.30;21.03;;;4.90;99.90;;;;;;4991047;28;20291;-69
2023/01/29 11:40:42;;;;;;;31.63;20.57;;;4.90;99.90;;;;;;4987379;28;20767;-69
2023/01/29 11:43:23;;;;;;;35.23;21.50;;;4.90;99.90;;;;;;4992834;28;20202;-69
2023/01/29 11:45:56;;;;;;;35.43;21.47;;;4.90;99.90;;;;;;4991691;28;20337;-69
2023/01/29 11:48:30;;;;;;;35.93;20.77;;;4.90;99.90;;;;;;4992041;28;20281;-69
2023/01/29 11:51:01;;;;;;;30.90;20.57;;;4.90;99.90;;;;;;4983004;28;20209;-69
2023/01/29 11:53:43;;;;;;;34.17;21.90;;;5.00;99.90;;;;;;4994528;28;20735;-70
2023/01/29 11:56:34;;;;;;;37.70;21.73;;;5.10;99.90;;;;;;4975472;28;20215;-69
2023/01/29 11:59:03;;;;;;;35.20;22.03;;;5.10;99.90;;;;;;4976363;28;20208;-69
2023/01/29 12:01:39;;;;;;;34.83;22.23;;;5.10;99.90;;;;;;4988089;28;20226;-69
2023/01/29 12:04:21;;;;;;;36.40;22.03;;;5.10;99.90;;;;;;4988338;28;20301;-69
2023/01/29 12:06:51;;;;;;;33.33;21.03;;;5.00;99.90;;;;;;4991462;28;20317;-69
2023/01/29 12:09:26;;;;;;;36.30;22.23;;;5.00;99.90;;;;;;4992384;28;20688;-70
2023/01/29 12:11:53;;;;;;;37.17;23.23;;;5.00;99.90;;;;;;4990174;28;20215;-70
2023/01/29 12:14:32;;;;;;;35.07;23.03;;;5.00;99.90;;;;;;4987434;28;20232;-69
2023/01/29 12:17:11;;;;;;;38.17;22.10;;;5.10;99.90;;;;;;4989948;28;20230;-70
2023/01/29 12:19:49;;;;;;;38.93;22.37;;;5.00;99.90;;;;;;4982559;28;20621;-69
2023/01/29 12:22:23;;;;;;;42.67;24.33;;;5.00;99.90;;;;;;4989530;28;20512;-72
2023/01/29 12:25:08;;;;;;;37.30;23.30;;;5.00;99.90;;;;;;4983927;28;20201;-68
2023/01/29 12:28:01;;;;;;;37.40;22.77;;;5.00;99.90;;;;;;4988274;28;20674;-69
2023/01/29 12:30:42;;;;;;;40.87;24.73;;;5.00;99.90;;;;;;4943166;28;20208;-69
2023/01/29 12:33:12;;;;;;;39.30;24.73;;;4.90;99.90;;;;;;4982903;28;20227;-69
2023/01/29 12:35:49;;;;;;;40.27;25.53;;;4.90;99.90;;;;;;4988050;28;20210;-71
2023/01/29 12:38:16;;;;;;;38.63;23.60;;;4.90;99.90;;;;;;4985334;28;20687;-70
2023/01/29 12:40:45;;;;;;;44.27;26.23;;;4.90;99.90;;;;;;4983816;28;20710;-69
2023/01/29 12:43:16;;;;;;;44.13;25.23;;;4.90;99.90;;;;;;4990932;28;20259;-69
2023/01/29 12:45:50;;;;;;;43.70;24.73;;;4.90;99.90;;;;;;4986677;28;20265;-69
2023/01/29 12:48:26;;;;;;;43.73;24.67;;;4.80;99.90;;;;;;4990292;28;20695;-69
2023/01/29 12:50:57;;;;;;;45.70;26.67;;;4.90;99.90;;;;;;4988272;28;20320;-69
2023/01/29 12:53:39;;;;;;;43.43;25.70;;;4.90;99.90;;;;;;4987187;28;20624;-70
2023/01/29 12:56:28;;;;;;;46.87;27.80;;;4.80;99.90;;;;;;4991137;28;20214;-70
2023/01/29 12:58:56;;;;;;;46.70;26.33;;;4.80;99.90;;;;;;4988427;28;20709;-70
2023/01/29 13:01:26;;;;;;;48.07;27.73;;;4.80;99.90;;;;;;4991766;28;20680;-70
2023/01/29 13:04:05;;;;;;;49.83;27.50;;;4.80;99.90;;;;;;4985290;28;20286;-70
2023/01/29 13:06:45;;;;;;;49.73;28.97;;;4.80;99.90;;;;;;4972338;28;20258;-69
2023/01/29 13:09:24;;;;;;;54.00;29.80;;;4.80;99.90;;;;;;4989591;28;20203;-69
2023/01/29 13:11:59;;;;;;;48.87;29.00;;;4.80;99.90;;;;;;4972878;28;20293;-69
2023/01/29 13:14:52;;;;;;;53.07;28.77;;;4.80;99.90;;;;;;4987446;28;20231;-69
2023/01/29 13:17:41;;;;;;;50.33;29.20;;;4.80;99.90;;;;;;4983884;28;20256;-69
2023/01/29 13:20:31;;;;;;;49.53;29.00;;;4.80;99.90;;;;;;4986987;28;20245;-69
2023/01/29 13:23:11;;;;;;;55.70;30.10;;;4.70;99.90;;;;;;4986517;28;20247;-69
2023/01/29 13:25:38;;;;;;;53.07;30.00;;;4.80;99.90;;;;;;4984368;28;20262;-69
2023/01/29 13:28:05;;;;;;;57.80;30.07;;;4.70;99.90;;;;;;4969702;28;20231;-70
2023/01/29 13:30:35;;;;;;;56.00;30.73;;;4.60;99.90;;;;;;4984967;28;20741;-69
2023/01/29 13:33:07;;;;;;;52.97;29.10;;;4.60;99.90;;;;;;4986250;28;20303;-69
2023/01/29 13:35:39;;;;;;;56.53;30.77;;;4.70;99.90;;;;;;4987417;28;20205;-69
2023/01/29 13:38:29;;;;;;;54.43;30.13;;;4.70;99.90;;;;;;4989028;28;20255;-69